Time;durP1;ratioP1;P1;durP2;ratioP2;P2;SDS_P1;SDS_P2;PMS_P1;PMS_P2;Temp;Humidity;BMP_temperature;BMP_pressure;BME280_temperature;BME280_humidity;BME280_pressure;Samples;Min_cycle;Max_cycle;Signal;HPM_P1;HPM_P2
2023/10/02 00:04:20;;;;;;;0.10;0.10;;;;;;;-145.06;100.00;56390.19;10409426;28;20057;-69
2023/10/02 00:09:20;;;;;;;0.00;0.00;;;;;;;-145.06;100.00;56410.47;10413930;28;20474;-68
2023/10/02 00:14:27;;;;;;;0.00;0.00;;;;;;;-145.06;100.00;56382.09;10411070;28;20017;-69
2023/10/02 00:19:44;;;;;;;0.10;0.10;;;;;;;-145.06;100.00;56418.56;10410818;28;20021;-70
2023/10/02 00:24:47;;;;;;;0.10;0.10;;;;;;;-145.06;100.00;56412.47;10408711;28;20372;-68
2023/10/02 00:29:57;;;;;;;0.10;0.10;;;;;;;-145.06;100.00;56406.41;10410906;28;20079;-67
2023/10/02 00:35:01;;;;;;;0.00;0.00;;;;;;;-145.06;100.00;56386.13;10409749;28;20030;-67
2023/10/02 00:40:01;;;;;;;0.10;0.10;;;;;;;-145.06;100.00;56392.22;10409907;28;20017;-67
2023/10/02 00:45:02;;;;;;;0.00;0.00;;;;;;;-145.06;100.00;56420.59;10409190;28;20018;-69
2023/10/02 00:50:10;;;;;;;0.10;0.10;;;;;;;-145.06;100.00;56426.66;10408522;28;20064;-68
2023/10/02 00:55:16;;;;;;;0.00;0.00;;;;;;;-145.06;100.00;56408.44;10407829;28;20029;-69
2023/10/02 01:00:19;;;;;;;0.00;0.00;;;;;;;-145.06;100.00;56402.34;10410097;28;20390;-68
2023/10/02 01:05:30;;;;;;;0.00;0.00;;;;;;;-145.06;100.00;56428.69;10408055;28;20025;-68
2023/10/02 01:10:34;;;;;;;0.10;0.10;;;;;;;-145.06;100.00;56394.25;10404717;28;20041;-68
2023/10/02 01:15:35;;;;;;;0.10;0.10;;;;;;;-145.06;100.00;56392.22;10411413;28;20025;-69
2023/10/02 01:20:38;;;;;;;0.00;0.00;;;;;;;-145.06;100.00;56406.41;10409027;28;20036;-69
2023/10/02 01:25:40;;;;;;;0.00;0.00;;;;;;;-145.06;100.00;56394.25;10408998;28;20013;-68
2023/10/02 01:30:45;;;;;;;0.10;0.10;;;;;;;-145.06;100.00;56396.28;10408797;28;20060;-68
2023/10/02 01:35:56;;;;;;;0.00;0.00;;;;;;;-145.06;100.00;56384.13;10410525;28;20383;-68
2023/10/02 01:46:05;;;;;;;0.00;0.00;;;;;;;-145.06;100.00;56414.50;10409133;28;20021;-68
2023/10/02 01:51:20;;;;;;;0.00;0.00;;;;;;;-145.06;100.00;56412.47;10407492;28;20036;-69
2023/10/02 01:56:29;;;;;;;0.00;0.00;;;;;;;-145.06;100.00;56432.75;10408940;28;20022;-68
2023/10/02 02:01:29;;;;;;;0.00;0.00;;;;;;;-145.06;100.00;56414.50;10406920;28;20029;-68
2023/10/02 02:06:29;;;;;;;0.00;0.00;;;;;;;-145.06;100.00;56396.28;10408373;28;20027;-68
2023/10/02 02:11:34;;;;;;;0.10;0.10;;;;;;;-145.06;100.00;56382.09;10406584;28;20024;-68
2023/10/02 02:16:35;;;;;;;0.00;0.00;;;;;;;-145.06;100.00;56384.13;10407451;28;20032;-68
2023/10/02 02:21:35;;;;;;;0.10;0.10;;;;;;;-145.06;100.00;56412.47;10406928;28;20402;-68
2023/10/02 02:26:39;;;;;;;0.10;0.10;;;;;;;-145.06;100.00;56380.06;10406231;28;20220;-68
2023/10/02 02:31:39;;;;;;;0.10;0.10;;;;;;;-145.06;100.00;56392.22;10406989;28;20108;-68
2023/10/02 02:36:41;;;;;;;0.08;0.08;;;;;;;-145.06;100.00;56396.28;10408335;28;20033;-68
2023/10/02 02:41:48;;;;;;;0.00;0.00;;;;;;;-145.06;100.00;56386.13;10407801;28;20040;-68
2023/10/02 02:46:53;;;;;;;0.05;0.05;;;;;;;-145.06;100.00;56363.84;10408071;28;20053;-68
2023/10/02 02:51:56;;;;;;;0.00;0.00;;;;;;;-145.06;100.00;56373.97;10406535;28;20036;-69
2023/10/02 02:56:58;;;;;;;0.00;0.00;;;;;;;-145.06;100.00;56410.47;10405208;28;20471;-69
2023/10/02 03:02:10;;;;;;;0.10;0.10;;;;;;;-145.06;100.00;56406.41;10407347;28;20465;-69
2023/10/02 03:07:29;;;;;;;0.10;0.10;;;;;;;-145.06;100.00;56406.41;10403503;28;20032;-69
2023/10/02 03:12:30;;;;;;;0.10;0.10;;;;;;;-145.06;100.00;56382.09;10407221;28;20032;-69
2023/10/02 03:17:30;;;;;;;0.10;0.10;;;;;;;-145.06;100.00;56363.84;10407971;28;20471;-69
2023/10/02 03:22:33;;;;;;;0.08;0.08;;;;;;;-145.06;100.00;56378.03;10405645;28;20025;-69
2023/10/02 03:27:36;;;;;;;0.10;0.10;;;;;;;-145.06;100.00;56384.13;10406158;28;20060;-69
2023/10/02 03:32:45;;;;;;;0.10;0.10;;;;;;;-145.06;100.00;56390.19;10405576;28;20108;-69
2023/10/02 03:37:51;;;;;;;0.10;0.10;;;;;;;-145.06;100.00;56355.75;10406562;28;20021;-69
2023/10/02 03:42:54;;;;;;;0.10;0.10;;;;;;;-145.06;100.00;56363.84;10406596;28;20021;-68
2023/10/02 03:48:02;;;;;;;0.10;0.10;;;;;;;-145.06;100.00;56343.59;10405118;28;20017;-70
2023/10/02 03:53:12;;;;;;;0.10;0.10;;;;;;;-145.06;100.00;56363.84;10405993;28;20037;-69
2023/10/02 03:58:13;;;;;;;0.00;0.00;;;;;;;-145.06;100.00;56345.59;10393064;28;20061;-69
2023/10/02 04:03:14;;;;;;;0.10;0.10;;;;;;;-145.06;100.00;56339.53;10395808;28;20101;-69
2023/10/02 04:08:36;;;;;;;0.00;0.00;;;;;;;-145.06;100.00;56327.38;10396285;28;20109;-69
2023/10/02 04:13:39;;;;;;;0.10;0.10;;;;;;;-145.06;100.00;56329.41;10394766;28;20138;-69
2023/10/02 04:18:46;;;;;;;0.10;0.10;;;;;;;-145.06;100.00;56327.38;10397009;28;20376;-68
2023/10/02 04:23:46;;;;;;;0.10;0.10;;;;;;;-145.06;100.00;56359.78;10402588;28;20040;-69
2023/10/02 04:34:29;;;;;;;0.10;0.10;;;;;;;-145.06;100.00;56345.59;10402809;28;20022;-69
2023/10/02 04:44:44;;;;;;;0.00;0.00;;;;;;;-145.06;100.00;56355.75;10404861;28;20034;-69
2023/10/02 04:55:07;;;;;;;0.00;0.00;;;;;;;-145.06;100.00;56369.94;10400747;28;20076;-67
2023/10/02 05:00:19;;;;;;;0.00;0.00;;;;;;;-145.06;100.00;56323.31;10403466;28;20021;-67
2023/10/02 05:05:23;;;;;;;0.00;0.00;;;;;;;-145.06;100.00;56333.44;10403970;28;20261;-67
2023/10/02 05:10:24;;;;;;;0.00;0.00;;;;;;;-145.06;100.00;56331.44;10406341;28;20029;-67
2023/10/02 05:15:27;;;;;;;0.05;0.05;;;;;;;-145.06;100.00;56319.25;10405781;28;20397;-69
2023/10/02 05:20:28;;;;;;;0.10;0.10;;;;;;;-145.06;100.00;56309.13;10406387;28;20043;-68
2023/10/02 05:25:29;;;;;;;0.05;0.05;;;;;;;-145.06;100.00;56359.78;10408930;28;20490;-68
2023/10/02 05:30:41;;;;;;;0.10;0.10;;;;;;;-145.06;100.00;56337.50;10404766;28;20013;-68
2023/10/02 05:35:45;;;;;;;0.10;0.10;;;;;;;-145.06;100.00;56311.16;10406487;28;20422;-68
2023/10/02 05:40:48;;;;;;;0.10;0.10;;;;;;;-145.06;100.00;56339.53;10407633;28;20032;-68
2023/10/02 05:45:50;;;;;;;0.10;0.10;;;;;;;-145.06;100.00;56315.22;10408158;28;20029;-68
2023/10/02 05:50:52;;;;;;;0.10;0.10;;;;;;;-145.06;100.00;56313.19;10405419;28;20029;-69
2023/10/02 05:56:05;;;;;;;0.10;0.10;;;;;;;-145.06;100.00;56351.69;10404349;28;20049;-67
2023/10/02 06:01:18;;;;;;;0.10;0.10;;;;;;;-145.06;100.00;56343.59;10403960;28;20028;-69
2023/10/02 06:06:18;;;;;;;0.00;0.00;;;;;;;-145.06;100.00;56355.75;10407563;28;20025;-68
2023/10/02 06:11:31;;;;;;;0.10;0.10;;;;;;;-145.06;100.00;56343.59;10409144;28;20025;-68
2023/10/02 06:16:32;;;;;;;0.00;0.00;;;;;;;-145.06;100.00;56339.53;10409830;28;20022;-67
2023/10/02 06:22:13;;;;;;;0.10;0.10;;;;;;;-145.06;100.00;56367.91;10408330;28;20467;-67
2023/10/02 06:27:12;;;;;;;0.10;0.10;;;;;;;-145.06;100.00;56351.69;10405741;28;20465;-68
2023/10/02 06:32:19;;;;;;;0.10;0.10;;;;;;;-145.06;100.00;56317.25;10404470;28;20123;-68
2023/10/02 06:37:30;;;;;;;0.10;0.10;;;;;;;-145.06;100.00;56315.22;10408603;28;20022;-68
2023/10/02 06:42:31;;;;;;;0.00;0.00;;;;;;;-145.06;100.00;56376.00;10404113;28;20033;-68
2023/10/02 06:47:32;;;;;;;0.00;0.00;;;;;;;-145.06;100.00;56380.06;10405907;28;20032;-67
2023/10/02 06:52:33;;;;;;;0.10;0.10;;;;;;;-145.06;100.00;56367.91;10404798;28;20080;-68
2023/10/02 06:57:36;;;;;;;0.00;0.00;;;;;;;-145.06;100.00;56416.53;10401849;28;20017;-68
2023/10/02 07:02:38;;;;;;;0.10;0.10;;;;;;;-145.06;100.00;56556.38;10406500;28;20013;-67
2023/10/02 07:07:58;;;;;;;0.00;0.00;;;;;;;-145.06;100.00;56448.97;10407100;28;20025;-67
2023/10/02 07:13:18;;;;;;;0.10;0.10;;;;;;;-145.06;100.00;56590.81;10406115;28;20109;-68
2023/10/02 07:18:19;;;;;;;0.00;0.00;;;;;;;-145.06;100.00;56696.19;10403746;28;20076;-67
2023/10/02 07:23:20;;;;;;;0.00;0.00;;;;;;;-145.06;100.00;56716.47;10406730;28;20020;-67
2023/10/02 07:28:21;;;;;;;0.10;0.10;;;;;;;-145.06;100.00;56781.31;10404404;28;20403;-70
2023/10/02 07:33:22;;;;;;;0.10;0.10;;;;;;;-145.06;100.00;56771.19;10402149;28;20276;-69
2023/10/02 07:38:30;;;;;;;0.00;0.00;;;;;;;-145.06;100.00;56746.84;10398543;28;20438;-69
2023/10/02 07:43:30;;;;;;;0.00;0.00;;;;;;;-145.06;100.00;56728.63;10400690;28;20025;-69
2023/10/02 07:48:33;;;;;;;0.00;0.00;;;;;;;-145.06;98.20;56842.13;10402697;28;20036;-68
2023/10/02 07:53:40;;;;;;;;;;;;;;;-145.06;96.46;56931.28;10402626;28;20029;-68
2023/10/02 07:58:54;;;;;;;0.00;0.00;;;;;;;-145.06;96.44;56925.22;10414989;28;19955;-68
2023/10/02 08:03:55;;;;;;;0.00;0.00;;;;;;;-145.06;98.10;56870.47;10411704;28;20035;-69
2023/10/02 08:14:38;;;;;;;0.10;0.10;;;;;;;-145.06;100.00;56769.16;10412544;28;20494;-68
2023/10/02 08:19:38;;;;;;;0.10;0.10;;;;;;;-145.06;100.00;56815.75;10413012;28;20021;-68
2023/10/02 08:24:38;;;;;;;0.10;0.10;;;;;;;-145.06;100.00;56805.63;10411232;28;20013;-69
2023/10/02 08:29:39;;;;;;;0.00;0.00;;;;;;;-145.06;100.00;56744.84;10413004;28;20421;-68
2023/10/02 08:34:39;;;;;;;0.00;0.00;;;;;;;-145.06;100.00;56700.25;10411426;28;20021;-68
2023/10/02 08:39:41;;;;;;;0.10;0.10;;;;;;;-145.06;100.00;56789.41;10410908;28;20013;-69
2023/10/02 08:44:42;;;;;;;0.00;0.00;;;;;;;-145.06;100.00;56819.81;10412913;28;20013;-69
2023/10/02 08:49:47;;;;;;;0.10;0.10;;;;;;;-145.06;95.89;56996.13;10407704;28;20121;-69
2023/10/02 08:54:47;;;;;;;0.00;0.00;;;;;;;-145.06;95.77;56979.94;10409729;28;20025;-69
2023/10/02 08:59:55;;;;;;;0.00;0.00;;;;;;;-145.06;97.04;56988.03;10412233;28;20387;-68
2023/10/02 09:04:58;;;;;;;0.10;0.10;;;;;;;-145.06;96.66;56988.03;10411668;28;20037;-69
2023/10/02 09:10:17;;;;;;;0.00;0.00;;;;;;;-145.06;95.21;57067.06;10408730;28;20025;-68
2023/10/02 09:15:29;;;;;;;0.10;0.10;;;;;;;-145.06;92.94;57140.03;10407732;28;20487;-68
2023/10/02 09:20:38;;;;;;;0.00;0.00;;;;;;;-145.06;92.27;57166.38;10409200;28;20032;-68
2023/10/02 09:26:16;;;;;;;0.00;0.00;;;;;;;-145.06;91.52;57133.97;10408143;28;20040;-68
2023/10/02 09:31:17;;;;;;;0.03;0.03;;;;;;;-145.06;93.19;57123.81;10408524;28;20074;-68
2023/10/02 09:36:34;;;;;;;0.00;0.00;;;;;;;-145.06;94.21;57119.78;10410437;28;20025;-68
2023/10/02 09:41:36;;;;;;;0.00;0.00;;;;;;;-145.06;92.19;57180.56;10408123;28;20021;-67
2023/10/02 09:46:39;;;;;;;0.00;0.00;;;;;;;-145.06;93.85;57178.56;10410571;28;20052;-68
2023/10/02 09:52:07;;;;;;;0.00;0.00;;;;;;;-145.06;90.85;57239.34;10408239;28;20021;-68
2023/10/02 09:57:16;;;;;;;0.00;0.00;;;;;;;-145.06;89.46;57288.00;10408350;28;20029;-67
2023/10/02 10:02:49;;;;;;;0.10;0.10;;;;;;;-145.06;90.23;57290.03;10407976;28;20025;-68
2023/10/02 10:13:12;;;;;;;0.10;0.10;;;;;;;-145.06;89.19;57324.50;10407952;28;20294;-67
2023/10/02 10:18:12;;;;;;;0.10;0.10;;;;;;;-145.06;86.87;57367.06;10403929;28;20055;-67
2023/10/02 10:23:41;;;;;;;0.00;0.00;;;;;;;-145.06;87.91;57344.75;10408772;28;20022;-67
2023/10/02 10:28:53;;;;;;;0.00;0.00;;;;;;;-145.06;88.56;57310.28;10364262;28;20075;-68
2023/10/02 10:33:56;;;;;;;0.00;0.00;;;;;;;-145.06;89.65;57251.53;10398143;28;20026;-67
2023/10/02 10:38:57;;;;;;;0.10;0.10;;;;;;;-145.06;87.38;57296.09;10407723;28;20521;-68
2023/10/02 10:43:59;;;;;;;0.00;0.00;;;;;;;-145.06;88.53;57328.53;10403981;28;20018;-68
2023/10/02 10:49:07;;;;;;;0.00;0.00;;;;;;;-145.06;87.81;57316.38;10405610;28;20479;-67
2023/10/02 10:54:12;;;;;;;0.00;0.00;;;;;;;-145.06;87.67;57320.44;10407259;28;20069;-66
2023/10/02 10:59:24;;;;;;;0.00;0.00;;;;;;;-145.06;90.29;57241.38;10403844;28;20025;-66
2023/10/02 11:04:27;;;;;;;0.00;0.00;;;;;;;-145.06;93.86;57138.00;10408481;28;20017;-67
2023/10/02 11:09:28;;;;;;;0.10;0.10;;;;;;;-145.06;95.00;57174.50;10407696;28;20052;-66
2023/10/02 11:14:38;;;;;;;0.00;0.00;;;;;;;-145.06;93.86;57186.66;10408395;28;20017;-67
2023/10/02 11:19:53;;;;;;;0.00;0.00;;;;;;;-145.06;94.61;57178.56;10405358;28;20083;-66
2023/10/02 11:24:53;;;;;;;0.10;0.10;;;;;;;-145.06;97.43;57113.69;10400865;28;20064;-67
2023/10/02 11:30:02;;;;;;;0.10;0.10;;;;;;;-145.06;98.13;57075.19;10405366;28;20517;-67
2023/10/02 11:35:05;;;;;;;0.00;0.00;;;;;;;-145.06;99.12;57109.63;10402608;28;20032;-68
2023/10/02 11:40:06;;;;;;;0.00;0.00;;;;;;;-145.06;97.56;57099.50;10402075;28;20483;-67
2023/10/02 11:45:07;;;;;;;0.05;0.05;;;;;;;-145.06;98.08;57136.00;10400679;28;20032;-68
2023/10/02 11:50:08;;;;;;;0.00;0.00;;;;;;;-145.06;99.41;57127.88;10403927;28;20033;-67
2023/10/02 11:55:09;;;;;;;0.00;0.00;;;;;;;-145.06;95.65;57245.44;10405899;28;20021;-68
2023/10/02 12:00:12;;;;;;;0.00;0.00;;;;;;;-145.06;96.98;57200.84;10401467;28;20022;-67
2023/10/02 12:05:12;;;;;;;0.10;0.10;;;;;;;-145.06;99.03;57180.56;10401075;28;20029;-68
2023/10/02 12:10:15;;;;;;;0.00;0.00;;;;;;;-145.06;96.88;57210.97;10402577;28;20079;-66
2023/10/02 12:15:16;;;;;;;0.00;0.00;;;;;;;-145.06;98.52;57136.00;10403420;28;20083;-66
2023/10/02 12:20:22;;;;;;;0.00;0.00;;;;;;;-145.06;99.16;57188.69;10404517;28;20041;-66
2023/10/02 12:25:22;;;;;;;0.10;0.10;;;;;;;-145.06;95.37;57294.09;10406788;28;20059;-66
2023/10/02 12:30:23;;;;;;;0.00;0.00;;;;;;;-145.06;95.43;57261.66;10404029;28;20078;-66
2023/10/02 12:35:23;;;;;;;0.00;0.00;;;;;;;-145.06;95.31;57255.56;10402255;28;20075;-66
2023/10/02 12:40:31;;;;;;;0.00;0.00;;;;;;;-145.06;94.93;57275.84;10403189;28;20429;-66
2023/10/02 12:45:35;;;;;;;0.00;0.00;;;;;;;-145.06;94.03;57275.84;10409369;28;20018;-66
2023/10/02 12:50:42;;;;;;;0.00;0.00;;;;;;;-145.06;96.00;57259.63;10409479;28;20029;-66
2023/10/02 12:55:45;;;;;;;0.00;0.00;;;;;;;-145.06;95.69;57288.00;10411194;28;20018;-66
2023/10/02 13:00:48;;;;;;;0.00;0.00;;;;;;;-145.06;96.47;57233.28;10409054;28;20029;-67
2023/10/02 13:05:48;;;;;;;0.10;0.10;;;;;;;-145.06;97.03;57219.09;10408871;28;20060;-67
2023/10/02 13:10:48;;;;;;;0.10;0.10;;;;;;;-145.06;98.48;57166.38;10408890;28;20036;-66
2023/10/02 13:15:50;;;;;;;0.00;0.00;;;;;;;-145.06;97.00;57219.09;10410862;28;20175;-68
2023/10/02 13:20:53;;;;;;;0.00;0.00;;;;;;;-145.06;98.92;57219.09;10410997;28;20025;-65
2023/10/02 13:25:54;;;;;;;0.00;0.00;;;;;;;-145.06;97.78;57178.56;10409828;28;20028;-66
2023/10/02 13:30:54;;;;;;;0.03;0.03;;;;;;;-145.06;99.03;57168.41;10412016;28;20075;-66
2023/10/02 13:35:59;;;;;;;0.00;0.00;;;;;;;-145.06;97.04;57219.09;10410824;28;20071;-67
2023/10/02 13:41:26;;;;;;;0.10;0.10;;;;;;;-145.06;98.96;57162.34;10406129;28;20260;-66
2023/10/02 13:46:26;;;;;;;0.00;0.00;;;;;;;-145.06;99.69;57210.97;10405330;28;20033;-66
2023/10/02 13:51:28;;;;;;;0.00;0.00;;;;;;;-145.06;98.89;57213.00;10407323;28;20039;-66
2023/10/02 13:56:32;;;;;;;0.10;0.10;;;;;;;-145.06;98.24;57265.72;10409336;28;20029;-66
2023/10/02 14:01:32;;;;;;;0.00;0.00;;;;;;;-145.06;98.42;57235.31;10409272;28;20036;-68
2023/10/02 14:06:33;;;;;;;0.10;0.10;;;;;;;-145.06;99.41;57227.19;10409598;28;20475;-67
2023/10/02 14:11:33;;;;;;;0.00;0.00;;;;;;;-145.06;98.89;57204.91;10412865;28;20025;-67
2023/10/02 14:16:34;;;;;;;0.10;0.10;;;;;;;-145.06;99.38;57233.28;10410994;28;20032;-67
2023/10/02 14:21:35;;;;;;;0.10;0.10;;;;;;;-145.06;100.00;57237.34;10412481;28;20021;-67
2023/10/02 14:26:35;;;;;;;0.00;0.00;;;;;;;-145.06;100.00;57202.88;10420024;28;20028;-66
2023/10/02 14:31:35;;;;;;;0.10;0.10;;;;;;;-145.06;100.00;57206.94;10417382;28;20048;-67
2023/10/02 14:36:36;;;;;;;0.00;0.00;;;;;;;-145.06;100.00;57192.75;10413135;28;20478;-66
2023/10/02 14:41:37;;;;;;;0.00;0.00;;;;;;;-145.06;100.00;57166.38;10429246;28;20516;-66
2023/10/02 14:46:39;;;;;;;0.10;0.10;;;;;;;-145.06;100.00;57142.06;10419187;28;20014;-66
2023/10/02 14:51:40;;;;;;;0.00;0.00;;;;;;;-145.06;100.00;57131.94;10414502;28;20029;-65
2023/10/02 14:56:40;;;;;;;0.00;0.00;;;;;;;-145.06;100.00;57158.28;10416256;28;20477;-66
2023/10/02 15:01:40;;;;;;;0.00;0.00;;;;;;;-145.06;100.00;57085.31;10428517;28;20124;-66
2023/10/02 15:06:41;;;;;;;0.00;0.00;;;;;;;-145.06;100.00;57113.69;10414959;28;20026;-66
2023/10/02 15:11:41;;;;;;;0.00;0.00;;;;;;;-145.06;100.00;57109.63;10425277;28;20379;-66
2023/10/02 15:16:41;;;;;;;0.00;0.00;;;;;;;-145.06;100.00;57052.88;10424846;28;20386;-66
2023/10/02 15:21:42;;;;;;;0.00;0.00;;;;;;;-145.06;100.00;57040.72;10416902;28;20075;-65
2023/10/02 15:26:45;;;;;;;0.00;0.00;;;;;;;-145.06;100.00;57020.47;10421545;28;20036;-66
2023/10/02 15:31:46;;;;;;;0.10;0.10;;;;;;;-145.06;100.00;57044.78;10413849;28;20056;-67
2023/10/02 15:36:47;;;;;;;0.10;0.10;;;;;;;-145.06;100.00;57036.69;10421381;28;20413;-66
2023/10/02 15:41:47;;;;;;;0.10;0.10;;;;;;;-145.06;100.00;56990.06;10444918;28;20023;-66
2023/10/02 15:46:50;;;;;;;0.10;0.10;;;;;;;-145.06;100.00;57000.19;10420974;28;20021;-67
2023/10/02 15:51:51;;;;;;;0.00;0.00;;;;;;;-145.06;100.00;56967.75;10411195;28;20510;-67
2023/10/02 15:56:52;;;;;;;0.00;0.00;;;;;;;-145.06;100.00;56969.78;10427356;28;20036;-67
2023/10/02 16:01:52;;;;;;;0.00;0.00;;;;;;;-145.06;100.00;56927.22;10413176;28;20052;-67
2023/10/02 16:06:52;;;;;;;0.00;0.00;;;;;;;-145.06;100.00;56927.22;10414605;28;20079;-67
2023/10/02 16:11:53;;;;;;;0.00;0.00;;;;;;;-145.06;100.00;56915.06;10410975;28;20055;-67
2023/10/02 16:16:53;;;;;;;0.00;0.00;;;;;;;-145.06;100.00;56896.84;10431013;28;20024;-67
2023/10/02 16:21:53;;;;;;;0.00;0.00;;;;;;;-145.06;100.00;56852.25;10443608;28;20137;-67
2023/10/02 16:26:55;;;;;;;0.00;0.00;;;;;;;-145.06;100.00;56860.34;10428689;28;20017;-67
2023/10/02 16:31:56;;;;;;;0.10;0.10;;;;;;;-145.06;100.00;56874.53;10408778;28;20029;-67
2023/10/02 16:36:56;;;;;;;0.00;0.00;;;;;;;-145.06;100.00;56858.31;10415802;28;20033;-67
2023/10/02 16:41:57;;;;;;;0.10;0.10;;;;;;;-145.06;100.00;56854.28;10418078;28;20068;-67
2023/10/02 16:46:57;;;;;;;0.10;0.10;;;;;;;-145.06;100.00;56807.66;10417928;28;20470;-67
2023/10/02 16:51:57;;;;;;;0.00;0.00;;;;;;;-145.06;100.00;56769.16;10417627;28;20025;-67
2023/10/02 16:56:57;;;;;;;0.00;0.00;;;;;;;-145.06;100.00;56761.03;10417395;28;20033;-67
2023/10/02 17:01:59;;;;;;;0.00;0.00;;;;;;;-145.06;100.00;56732.66;10417028;28;20029;-67
2023/10/02 17:06:59;;;;;;;0.08;0.08;;;;;;;-145.06;100.00;56708.34;10417506;28;20056;-67
2023/10/02 17:12:00;;;;;;;0.10;0.10;;;;;;;-145.06;100.00;56698.22;10416873;28;20048;-66
2023/10/02 17:17:00;;;;;;;0.10;0.10;;;;;;;-145.06;100.00;56679.97;10417046;28;20025;-67
2023/10/02 17:22:03;;;;;;;0.03;0.03;;;;;;;-145.06;100.00;56671.88;10417019;28;20035;-67
2023/10/02 17:27:03;;;;;;;0.10;0.10;;;;;;;-145.06;100.00;56659.72;10415722;28;20025;-67
2023/10/02 17:32:04;;;;;;;0.10;0.10;;;;;;;-145.06;100.00;56635.41;10416135;28;20038;-67
2023/10/02 17:37:04;;;;;;;0.10;0.10;;;;;;;-145.06;100.00;56602.97;10416014;28;20030;-66
2023/10/02 17:42:04;;;;;;;0.00;0.00;;;;;;;-145.06;100.00;56615.13;10414576;28;20042;-67
2023/10/02 17:47:05;;;;;;;0.10;0.10;;;;;;;-145.06;100.00;56607.03;10415675;28;20101;-67
2023/10/02 17:52:10;;;;;;;0.00;0.00;;;;;;;-145.06;100.00;56590.81;10415273;28;20035;-67
2023/10/02 17:57:17;;;;;;;0.10;0.10;;;;;;;-145.06;100.00;56548.25;10415211;28;20398;-67
2023/10/02 18:02:17;;;;;;;0.00;0.00;;;;;;;-145.06;100.00;56550.28;10415621;28;20343;-67
2023/10/02 18:07:18;;;;;;;0.00;0.00;;;;;;;-145.06;100.00;56542.19;10414767;28;20417;-67
2023/10/02 18:12:18;;;;;;;0.10;0.10;;;;;;;-145.06;100.00;56558.38;10414514;28;20072;-67
2023/10/02 18:17:19;;;;;;;0.00;0.00;;;;;;;-145.06;100.00;56548.25;10414238;28;20031;-67
2023/10/02 18:22:19;;;;;;;0.10;0.10;;;;;;;-145.06;100.00;56546.22;10414582;28;20029;-66
2023/10/02 18:27:19;;;;;;;0.10;0.10;;;;;;;-145.06;100.00;56523.94;10414500;28;20026;-66
2023/10/02 18:32:20;;;;;;;0.00;0.00;;;;;;;-145.06;100.00;56495.56;10408332;28;20179;-63
2023/10/02 18:37:21;;;;;;;0.10;0.10;;;;;;;-145.06;100.00;56519.88;10408628;28;20471;-63
2023/10/02 18:42:22;;;;;;;0.10;0.10;;;;;;;-145.06;100.00;56534.06;10408944;28;20014;-63
2023/10/02 18:47:22;;;;;;;0.08;0.08;;;;;;;-145.06;100.00;56489.50;10406846;28;20091;-63
2023/10/02 18:52:22;;;;;;;0.00;0.00;;;;;;;-145.06;100.00;56487.47;10402608;28;20029;-63
2023/10/02 18:57:24;;;;;;;0.10;0.10;;;;;;;-145.06;100.00;56467.19;10408213;28;20092;-63
2023/10/02 19:02:24;;;;;;;0.00;0.00;;;;;;;-145.06;100.00;56477.31;10402579;28;20021;-63
2023/10/02 19:07:24;;;;;;;0.10;0.10;;;;;;;-145.06;100.00;56465.16;10402469;28;20013;-63
2023/10/02 19:12:24;;;;;;;0.00;0.00;;;;;;;-145.06;100.00;56501.66;10400713;28;20435;-63
2023/10/02 19:17:26;;;;;;;0.10;0.10;;;;;;;-145.06;100.00;56469.22;10402727;28;20025;-63
2023/10/02 19:22:27;;;;;;;0.00;0.00;;;;;;;-145.06;100.00;56434.78;10402491;28;20030;-63
2023/10/02 19:27:27;;;;;;;0.00;0.00;;;;;;;-145.06;100.00;56438.81;10403277;28;20477;-63
2023/10/02 19:32:28;;;;;;;0.10;0.10;;;;;;;-145.06;100.00;56467.19;10403247;28;20033;-63
2023/10/02 19:37:28;;;;;;;0.00;0.00;;;;;;;-145.06;100.00;56450.97;10406410;28;20025;-63
2023/10/02 19:42:29;;;;;;;0.10;0.10;;;;;;;-145.06;100.00;56473.28;10405159;28;20013;-63
2023/10/02 19:47:29;;;;;;;0.00;0.00;;;;;;;-145.06;100.00;56450.97;10407275;28;20079;-63
2023/10/02 19:52:30;;;;;;;0.10;0.10;;;;;;;-145.06;100.00;56442.88;10411986;28;20025;-63
2023/10/02 19:57:32;;;;;;;0.10;0.10;;;;;;;-145.06;100.00;56463.16;10412416;28;20487;-62
2023/10/02 20:02:33;;;;;;;0.05;0.05;;;;;;;-145.06;100.00;56388.16;10411517;28;20022;-63
2023/10/02 20:07:34;;;;;;;0.10;0.10;;;;;;;-145.06;100.00;56428.69;10413527;28;20014;-63
2023/10/02 20:12:38;;;;;;;0.00;0.00;;;;;;;-145.06;100.00;56465.16;10409774;28;20036;-63
2023/10/02 20:17:39;;;;;;;0.10;0.10;;;;;;;-145.06;100.00;56457.06;10409867;28;20365;-63
2023/10/02 20:22:39;;;;;;;0.00;0.00;;;;;;;-145.06;100.00;56448.97;10411585;28;20045;-63
2023/10/02 20:27:40;;;;;;;0.10;0.10;;;;;;;-145.06;100.00;56424.63;10411527;28;20475;-63
2023/10/02 20:32:41;;;;;;;0.00;0.00;;;;;;;-145.06;100.00;56442.88;10412970;28;20425;-63
2023/10/02 20:37:41;;;;;;;0.10;0.10;;;;;;;-145.06;100.00;56436.81;10412372;28;20029;-63
2023/10/02 20:42:42;;;;;;;0.00;0.00;;;;;;;-145.06;100.00;56432.75;10411784;28;20026;-63
2023/10/02 20:47:42;;;;;;;0.10;0.10;;;;;;;-145.06;100.00;56396.28;10412335;28;20395;-63
2023/10/02 20:52:42;;;;;;;0.10;0.10;;;;;;;-145.06;100.00;56420.59;10409977;28;20037;-63
2023/10/02 20:57:43;;;;;;;0.10;0.10;;;;;;;-145.06;100.00;56428.69;10412983;28;20083;-62
2023/10/02 21:02:44;;;;;;;0.00;0.00;;;;;;;-145.06;100.00;56390.19;10410969;28;20017;-63
2023/10/02 21:07:44;;;;;;;0.00;0.00;;;;;;;-145.06;100.00;56394.25;10412370;28;20017;-63
2023/10/02 21:12:45;;;;;;;0.10;0.10;;;;;;;-145.06;100.00;56420.59;10410262;28;20026;-63
2023/10/02 21:17:45;;;;;;;0.03;0.03;;;;;;;-145.06;100.00;56388.16;10411799;28;20022;-63
2023/10/02 21:22:46;;;;;;;0.08;0.08;;;;;;;-145.06;100.00;56396.28;10411195;28;20029;-64
2023/10/02 21:27:47;;;;;;;0.00;0.00;;;;;;;-145.06;100.00;56384.13;10409418;28;20367;-62
2023/10/02 21:32:47;;;;;;;0.00;0.00;;;;;;;-145.06;100.00;56414.50;10410772;28;20018;-63
2023/10/02 21:37:47;;;;;;;0.10;0.10;;;;;;;-145.06;100.00;56363.84;10412319;28;20021;-64
2023/10/02 21:42:47;;;;;;;0.05;0.05;;;;;;;-145.06;100.00;56414.50;10409930;28;20025;-64
2023/10/02 21:47:48;;;;;;;0.03;0.03;;;;;;;-145.06;100.00;56380.06;10409615;28;20017;-63
2023/10/02 21:52:48;;;;;;;0.05;0.05;;;;;;;-145.06;100.00;56351.69;10409352;28;20039;-63
2023/10/02 21:57:49;;;;;;;0.00;0.00;;;;;;;-145.06;100.00;56367.91;10407671;28;20037;-64
2023/10/02 22:02:49;;;;;;;0.10;0.10;;;;;;;-145.06;100.00;56341.56;10407542;28;20103;-64
2023/10/02 22:07:49;;;;;;;0.00;0.00;;;;;;;-145.06;100.00;56398.28;10408500;28;20059;-63
2023/10/02 22:12:53;;;;;;;0.10;0.10;;;;;;;-145.06;100.00;56347.63;10408088;28;20032;-63
2023/10/02 22:17:55;;;;;;;0.10;0.10;;;;;;;-145.06;100.00;56325.34;10409380;28;20398;-64
2023/10/02 22:22:58;;;;;;;0.10;0.10;;;;;;;-145.06;100.00;56321.28;10409480;28;20355;-64
2023/10/02 22:28:00;;;;;;;0.10;0.10;;;;;;;-145.06;100.00;56309.13;10409187;28;20021;-64
2023/10/02 22:33:00;;;;;;;0.10;0.10;;;;;;;-145.06;100.00;56270.63;10404406;28;20121;-64
2023/10/02 22:38:01;;;;;;;0.00;0.00;;;;;;;-145.06;100.00;56301.03;10407418;28;20108;-63
2023/10/02 22:43:02;;;;;;;0.10;0.10;;;;;;;-145.06;100.00;56321.28;10408389;28;20029;-64
2023/10/02 22:48:03;;;;;;;0.10;0.10;;;;;;;-145.06;100.00;56343.59;10409473;28;20021;-64
2023/10/02 22:53:06;;;;;;;0.10;0.10;;;;;;;-145.06;100.00;56365.88;10406137;28;20029;-64
2023/10/02 22:58:09;;;;;;;0.10;0.10;;;;;;;-145.06;100.00;56327.38;10407382;28;20040;-64
2023/10/02 23:03:11;;;;;;;0.10;0.10;;;;;;;-145.06;100.00;56398.28;10405766;28;20079;-64
2023/10/02 23:08:12;;;;;;;0.00;0.00;;;;;;;-145.06;100.00;56384.13;10401839;28;20053;-63
2023/10/02 23:13:16;;;;;;;0.10;0.10;;;;;;;-145.06;100.00;56388.16;10404576;28;20445;-64
2023/10/02 23:18:17;;;;;;;0.10;0.10;;;;;;;-145.06;100.00;56351.69;10402233;28;20493;-64
2023/10/02 23:23:17;;;;;;;0.10;0.10;;;;;;;-145.06;100.00;56311.16;10405951;28;20087;-64